Time;durP1;ratioP1;P1;durP2;ratioP2;P2;SDS_P1;SDS_P2;PMS_P1;PMS_P2;Temp;Humidity;BMP_temperature;BMP_pressure;BME280_temperature;BME280_humidity;BME280_pressure;Samples;Min_cycle;Max_cycle;Signal;HPM_P1;HPM_P2
2023/01/20 00:00:08;;;;;;;3.47;2.38;;;11.60;72.00;;;;;;6214486;23;19997;-67
2023/01/20 00:02:34;;;;;;;5.15;2.55;;;11.60;72.00;;;;;;6213436;23;20000;-67
2023/01/20 00:04:59;;;;;;;3.47;2.10;;;11.60;71.90;;;;;;6213093;23;20115;-67
2023/01/20 00:07:25;;;;;;;2.75;2.30;;;11.60;72.00;;;;;;6213250;23;20024;-67
2023/01/20 00:09:50;;;;;;;4.80;2.10;;;11.60;72.00;;;;;;6212712;23;20390;-67
2023/01/20 00:12:16;;;;;;;3.97;2.22;;;11.60;71.90;;;;;;6213544;23;20040;-67
2023/01/20 00:14:42;;;;;;;3.78;2.22;;;11.60;72.00;;;;;;6216355;23;20007;-67
2023/01/20 00:17:07;;;;;;;3.22;1.95;;;11.60;72.00;;;;;;6216211;23;20008;-67
2023/01/20 00:19:33;;;;;;;4.72;2.38;;;11.60;72.00;;;;;;6215118;23;20003;-67
2023/01/20 00:21:58;;;;;;;3.78;1.95;;;11.60;71.90;;;;;;6216249;23;20005;-67
2023/01/20 00:24:24;;;;;;;4.15;2.60;;;11.60;71.90;;;;;;6216257;23;20020;-67
2023/01/20 00:26:50;;;;;;;3.50;2.17;;;11.60;71.90;;;;;;6216131;23;20005;-67
2023/01/20 00:29:15;;;;;;;4.80;2.28;;;11.60;71.90;;;;;;6216211;23;20086;-67
2023/01/20 00:31:41;;;;;;;3.47;2.38;;;11.60;71.90;;;;;;6216057;23;20051;-67
2023/01/20 00:34:08;;;;;;;3.90;2.30;;;11.60;71.90;;;;;;6214817;23;20024;-67
2023/01/20 00:36:34;;;;;;;2.53;2.10;;;11.60;71.90;;;;;;6214831;23;20007;-67
2023/01/20 00:39:00;;;;;;;3.90;2.30;;;11.60;71.90;;;;;;6216239;23;19997;-67
2023/01/20 00:41:26;;;;;;;3.05;2.00;;;11.60;71.90;;;;;;6214567;23;20005;-67
2023/01/20 00:43:51;;;;;;;2.67;1.92;;;11.60;71.90;;;;;;6216045;23;20027;-67
2023/01/20 00:46:17;;;;;;;3.40;2.35;;;11.60;71.90;;;;;;6214712;23;20340;-67
2023/01/20 00:48:43;;;;;;;4.05;2.03;;;11.60;71.90;;;;;;6216209;23;20401;-67
2023/01/20 00:51:09;;;;;;;4.88;2.25;;;11.60;72.00;;;;;;6216022;23;20012;-67
2023/01/20 00:53:35;;;;;;;2.38;1.88;;;11.60;71.80;;;;;;6189596;23;20011;-67
2023/01/20 00:56:01;;;;;;;3.38;2.00;;;11.60;71.90;;;;;;6189318;23;20071;-67
2023/01/20 00:58:26;;;;;;;2.50;1.98;;;11.60;71.80;;;;;;6214629;23;20404;-67
2023/01/20 01:00:52;;;;;;;3.00;2.08;;;11.60;71.90;;;;;;6216149;23;20023;-67
2023/01/20 01:03:18;;;;;;;3.13;2.20;;;11.60;71.90;;;;;;6215939;23;20000;-67
2023/01/20 01:05:44;;;;;;;3.45;2.00;;;11.60;71.90;;;;;;6214488;23;19996;-67
2023/01/20 01:08:10;;;;;;;3.20;2.10;;;11.60;71.90;;;;;;6215826;23;20003;-67
2023/01/20 01:10:36;;;;;;;3.92;1.98;;;11.60;71.80;;;;;;6214221;23;19996;-67
2023/01/20 01:13:02;;;;;;;4.00;2.20;;;11.60;71.90;;;;;;6215845;23;20004;-67
2023/01/20 01:15:28;;;;;;;3.08;2.10;;;11.60;71.80;;;;;;6189446;23;20507;-67
2023/01/20 01:17:53;;;;;;;4.68;2.33;;;11.60;71.90;;;;;;6214239;23;20008;-67
2023/01/20 01:20:19;;;;;;;3.25;2.15;;;11.60;71.90;;;;;;6214237;23;20004;-67
2023/01/20 01:22:45;;;;;;;2.58;1.80;;;11.60;71.80;;;;;;6215501;23;20012;-67
2023/01/20 01:25:10;;;;;;;5.53;2.10;;;11.60;71.80;;;;;;6188998;23;20007;-67
2023/01/20 01:27:36;;;;;;;3.42;2.05;;;11.60;71.80;;;;;;6214296;23;20012;-67
2023/01/20 01:30:02;;;;;;;5.18;2.10;;;11.60;71.90;;;;;;6215919;23;20004;-67
2023/01/20 01:32:28;;;;;;;3.85;2.28;;;11.60;71.80;;;;;;6214137;23;20387;-67
2023/01/20 01:34:53;;;;;;;3.00;2.00;;;11.60;71.90;;;;;;6215622;23;20080;-67
2023/01/20 01:37:19;;;;;;;3.75;1.95;;;11.60;71.80;;;;;;6215610;23;20025;-67
2023/01/20 01:39:44;;;;;;;3.70;1.98;;;11.60;71.80;;;;;;6215261;23;20463;-67
2023/01/20 01:42:15;;;;;;;2.72;1.73;;;11.60;71.80;;;;;;6214079;23;19997;-67
2023/01/20 01:45:08;;;;;;;1.92;1.70;;;11.60;71.90;;;;;;6215467;23;20008;-67
2023/01/20 01:47:45;;;;;;;2.55;2.08;;;11.60;71.80;;;;;;6215599;23;20004;-67
2023/01/20 01:50:13;;;;;;;3.35;2.05;;;11.60;71.80;;;;;;6214080;23;20005;-67
2023/01/20 01:52:40;;;;;;;2.40;1.85;;;11.60;71.90;;;;;;6189277;23;20012;-67
2023/01/20 01:55:06;;;;;;;2.50;1.83;;;11.50;71.80;;;;;;6213654;23;20074;-67
2023/01/20 01:57:31;;;;;;;4.22;2.20;;;11.50;71.70;;;;;;6213810;23;20496;-67
2023/01/20 01:59:57;;;;;;;3.03;1.98;;;11.50;71.70;;;;;;6188981;23;20072;-67
2023/01/20 02:02:23;;;;;;;3.17;1.60;;;11.60;71.80;;;;;;6215460;23;20023;-67
2023/01/20 02:04:48;;;;;;;2.95;1.85;;;11.60;71.80;;;;;;6188974;23;20535;-67
2023/01/20 02:07:15;;;;;;;2.85;1.77;;;11.60;71.80;;;;;;6215369;23;20000;-67
2023/01/20 02:09:41;;;;;;;3.13;1.83;;;11.50;71.70;;;;;;6188710;23;20027;-67
2023/01/20 02:12:12;;;;;;;2.92;2.10;;;11.60;71.90;;;;;;6189087;23;20001;-67
2023/01/20 02:14:49;;;;;;;4.13;2.08;;;11.60;71.80;;;;;;6215096;23;20005;-67
2023/01/20 02:17:30;;;;;;;3.42;1.80;;;11.50;71.70;;;;;;6189229;23;20421;-67
2023/01/20 02:20:14;;;;;;;3.63;1.73;;;11.60;71.80;;;;;;6213832;23;20000;-67
2023/01/20 02:23:01;;;;;;;3.90;1.80;;;11.50;71.70;;;;;;6214777;23;20076;-67
2023/01/20 02:25:47;;;;;;;3.05;1.98;;;11.50;71.80;;;;;;6213797;23;20004;-67
2023/01/20 02:28:50;;;;;;;2.08;1.63;;;11.60;72.80;;;;;;6215313;23;20033;-67
2023/01/20 02:31:53;;;;;;;2.83;1.73;;;11.60;71.80;;;;;;6215120;23;20000;-67
2023/01/20 02:34:39;;;;;;;2.58;1.85;;;11.50;71.70;;;;;;6215059;23;20013;-67
2023/01/20 02:37:06;;;;;;;3.17;1.90;;;11.50;71.80;;;;;;6214970;23;19997;-67
2023/01/20 02:39:39;;;;;;;3.35;2.00;;;11.60;71.80;;;;;;6213969;23;20528;-67
2023/01/20 02:42:17;;;;;;;2.17;1.90;;;11.50;71.80;;;;;;6213614;23;20000;-67
2023/01/20 02:44:52;;;;;;;3.33;2.10;;;11.50;71.70;;;;;;6189809;23;20344;-67
2023/01/20 02:47:33;;;;;;;2.53;1.85;;;11.50;71.80;;;;;;6213726;23;20062;-67
2023/01/20 02:50:01;;;;;;;1.98;1.50;;;11.50;71.70;;;;;;6165638;23;20009;-67
2023/01/20 02:52:39;;;;;;;2.15;1.70;;;11.50;71.70;;;;;;6214813;23;20437;-67
2023/01/20 02:55:10;;;;;;;4.40;2.00;;;11.50;71.70;;;;;;6213489;23;20072;-67
2023/01/20 02:57:48;;;;;;;2.20;1.60;;;11.50;71.70;;;;;;6213684;23;20023;-67
2023/01/20 03:00:25;;;;;;;2.75;1.95;;;11.50;71.70;;;;;;6164339;23;20000;-67
2023/01/20 03:02:51;;;;;;;2.70;2.13;;;11.50;71.70;;;;;;6189408;23;20433;-67
2023/01/20 03:05:19;;;;;;;2.08;1.75;;;11.50;71.70;;;;;;6188775;23;20028;-67
2023/01/20 03:07:45;;;;;;;2.22;1.60;;;11.50;71.70;;;;;;6188454;23;20005;-67
2023/01/20 03:10:13;;;;;;;2.58;1.73;;;11.50;71.80;;;;;;6188515;23;20402;-67
2023/01/20 03:12:59;;;;;;;4.63;2.05;;;11.50;71.70;;;;;;6188480;23;20008;-67
2023/01/20 03:15:31;;;;;;;2.85;1.83;;;11.50;71.70;;;;;;6213465;23;20024;-67
2023/01/20 03:17:57;;;;;;;2.70;1.88;;;11.50;71.70;;;;;;6213349;23;20004;-67
2023/01/20 03:20:22;;;;;;;2.33;1.60;;;11.50;71.70;;;;;;6188351;23;20055;-67
2023/01/20 03:22:48;;;;;;;4.22;1.67;;;11.50;71.70;;;;;;6213000;23;20357;-67
2023/01/20 03:25:14;;;;;;;3.13;1.90;;;11.50;71.70;;;;;;6188201;23;20340;-67
2023/01/20 03:27:40;;;;;;;2.90;1.80;;;11.50;71.70;;;;;;6213331;23;20009;-67
2023/01/20 03:30:12;;;;;;;1.73;1.42;;;11.50;71.70;;;;;;6214739;23;20410;-67
2023/01/20 03:32:37;;;;;;;2.15;1.42;;;11.50;71.70;;;;;;6188383;23;20024;-67
2023/01/20 03:35:03;;;;;;;1.92;1.73;;;11.50;71.70;;;;;;6187787;23;20009;-67
2023/01/20 03:37:29;;;;;;;1.80;1.50;;;11.50;71.70;;;;;;6213202;23;20009;-67
2023/01/20 03:39:55;;;;;;;1.77;1.50;;;11.50;71.70;;;;;;6213183;23;19996;-67
2023/01/20 03:42:36;;;;;;;2.10;1.70;;;11.50;71.60;;;;;;6214676;23;20024;-67
2023/01/20 03:45:14;;;;;;;2.70;1.70;;;11.50;71.60;;;;;;6188992;23;20008;-67
2023/01/20 03:48:05;;;;;;;2.75;1.65;;;11.50;71.70;;;;;;6214861;23;20012;-67
2023/01/20 03:50:38;;;;;;;2.45;1.50;;;11.50;71.60;;;;;;6193010;23;20314;-67
2023/01/20 03:53:34;;;;;;;3.13;1.58;;;11.50;71.60;;;;;;6191184;23;20023;-67
2023/01/20 03:56:05;;;;;;;2.33;1.60;;;11.50;71.60;;;;;;6215222;23;20013;-67
2023/01/20 03:58:33;;;;;;;2.83;1.70;;;11.50;71.60;;;;;;6190635;23;20000;-67
2023/01/20 04:00:59;;;;;;;3.40;1.85;;;11.50;71.60;;;;;;6190465;23;20000;-67
2023/01/20 04:03:30;;;;;;;3.13;1.50;;;11.50;71.60;;;;;;6190126;23;20028;-67
2023/01/20 04:05:56;;;;;;;2.38;1.55;;;11.50;71.60;;;;;;6214906;23;20004;-67
2023/01/20 04:08:23;;;;;;;3.03;1.63;;;11.50;71.60;;;;;;6215141;23;20001;-67
2023/01/20 04:10:49;;;;;;;2.22;1.65;;;11.50;71.60;;;;;;6190312;23;20007;-67
2023/01/20 04:13:14;;;;;;;3.00;1.70;;;11.50;71.60;;;;;;6164819;23;20004;-67
2023/01/20 04:15:43;;;;;;;3.38;1.95;;;11.50;71.60;;;;;;6216545;23;20003;-67
2023/01/20 04:18:21;;;;;;;2.53;1.52;;;11.50;71.60;;;;;;6190502;23;20016;-67
2023/01/20 04:20:49;;;;;;;2.65;1.23;;;11.50;71.60;;;;;;6189949;23;20383;-67
2023/01/20 04:23:30;;;;;;;3.60;1.80;;;11.50;71.50;;;;;;6215969;23;20357;-67
2023/01/20 04:25:56;;;;;;;2.90;1.45;;;11.50;71.60;;;;;;6216404;23;20000;-67
2023/01/20 04:28:22;;;;;;;2.40;1.60;;;11.50;71.50;;;;;;6214895;23;20436;-67
2023/01/20 04:30:47;;;;;;;1.83;1.48;;;11.50;71.60;;;;;;6216505;23;20314;-67
2023/01/20 04:33:13;;;;;;;2.03;1.30;;;11.50;71.60;;;;;;6215985;23;20340;-67
2023/01/20 04:35:38;;;;;;;1.90;1.38;;;11.50;71.60;;;;;;6216074;23;20063;-67
2023/01/20 04:38:05;;;;;;;3.15;1.63;;;11.50;71.50;;;;;;6214864;23;20001;-67
2023/01/20 04:40:31;;;;;;;2.80;1.58;;;11.50;71.60;;;;;;6216299;23;20004;-67
2023/01/20 04:42:56;;;;;;;1.80;1.30;;;11.50;71.50;;;;;;6189978;23;20000;-67
2023/01/20 04:45:22;;;;;;;1.88;1.38;;;11.50;71.50;;;;;;6216473;23;20428;-67
2023/01/20 04:47:47;;;;;;;2.05;1.67;;;11.50;71.50;;;;;;6189381;23;20004;-67
2023/01/20 04:50:14;;;;;;;1.80;1.25;;;11.50;71.50;;;;;;6216068;23;20008;-67
2023/01/20 04:52:40;;;;;;;2.40;1.40;;;11.50;71.50;;;;;;6214799;23;20009;-67
2023/01/20 04:55:06;;;;;;;2.60;1.50;;;11.50;71.50;;;;;;6216002;23;20468;-67
2023/01/20 04:57:31;;;;;;;2.60;1.30;;;11.50;71.50;;;;;;6216125;23;20073;-67
2023/01/20 04:59:57;;;;;;;2.08;1.50;;;11.50;71.60;;;;;;6215819;23;20437;-67
2023/01/20 05:02:22;;;;;;;2.80;1.40;;;11.50;71.50;;;;;;6215733;23;20432;-67
2023/01/20 05:04:48;;;;;;;2.70;1.50;;;11.50;71.60;;;;;;6214563;23;20001;-67
2023/01/20 05:07:14;;;;;;;2.10;1.40;;;11.50;71.50;;;;;;6215879;23;20495;-67
2023/01/20 05:09:39;;;;;;;4.10;1.67;;;11.50;71.50;;;;;;6215938;23;20005;-67
2023/01/20 05:12:05;;;;;;;1.35;1.15;;;11.50;71.50;;;;;;6215900;23;20075;-67
2023/01/20 05:14:30;;;;;;;2.83;1.60;;;11.50;71.50;;;;;;6214330;23;20073;-67
2023/01/20 05:16:56;;;;;;;1.90;1.30;;;11.50;71.60;;;;;;6215658;23;20339;-67
2023/01/20 05:19:22;;;;;;;1.60;1.10;;;11.50;71.50;;;;;;6215822;23;20426;-67
2023/01/20 05:21:47;;;;;;;2.35;1.60;;;11.50;71.50;;;;;;6215665;23;20000;-67
2023/01/20 05:24:13;;;;;;;2.00;1.23;;;11.50;71.50;;;;;;6215723;23;20020;-67
2023/01/20 05:26:39;;;;;;;1.80;1.30;;;11.50;71.50;;;;;;6214313;23;20019;-67
2023/01/20 05:29:04;;;;;;;2.58;1.30;;;11.50;71.50;;;;;;6215797;23;20008;-67
2023/01/20 05:31:30;;;;;;;1.48;1.33;;;11.50;71.50;;;;;;6213937;23;20001;-67
2023/01/20 05:33:56;;;;;;;2.10;1.17;;;11.50;71.50;;;;;;6214153;23;20004;-67
2023/01/20 05:36:21;;;;;;;1.85;1.20;;;11.50;71.50;;;;;;6189204;23;20004;-67
2023/01/20 05:38:47;;;;;;;1.45;1.20;;;11.50;71.50;;;;;;6189342;23;20023;-67
2023/01/20 05:41:13;;;;;;;2.85;1.23;;;11.50;71.50;;;;;;6215482;23;20043;-67
2023/01/20 05:43:38;;;;;;;2.03;1.40;;;11.50;71.50;;;;;;6215544;23;20345;-67
2023/01/20 05:46:04;;;;;;;2.55;1.50;;;11.50;71.50;;;;;;6215281;23;20009;-67
2023/01/20 05:48:30;;;;;;;1.67;1.20;;;11.50;71.50;;;;;;6189137;23;20028;-67
2023/01/20 05:50:55;;;;;;;3.78;1.50;;;11.50;71.50;;;;;;6215816;23;20007;-67
2023/01/20 05:53:21;;;;;;;1.98;1.10;;;11.50;71.50;;;;;;6213919;23;20012;-67
2023/01/20 05:55:47;;;;;;;2.08;1.35;;;11.50;71.50;;;;;;6215266;23;20008;-67
2023/01/20 05:58:12;;;;;;;1.50;1.02;;;11.50;71.50;;;;;;6189000;23;20001;-67
2023/01/20 06:00:38;;;;;;;2.92;1.13;;;11.50;71.50;;;;;;6215129;23;20001;-67
2023/01/20 06:03:04;;;;;;;2.17;1.42;;;11.50;71.50;;;;;;6215352;23;20005;-67
2023/01/20 06:05:30;;;;;;;2.05;1.30;;;11.50;71.50;;;;;;6214046;23;20078;-67
2023/01/20 06:07:56;;;;;;;1.30;1.00;;;11.50;71.50;;;;;;6213790;23;20005;-67
2023/01/20 06:10:26;;;;;;;1.52;1.08;;;11.50;71.50;;;;;;6213774;23;20024;-67
2023/01/20 06:12:53;;;;;;;1.63;1.17;;;11.50;71.50;;;;;;6215438;23;20028;-67
2023/01/20 06:15:18;;;;;;;1.27;1.10;;;11.50;71.50;;;;;;6187954;23;20352;-67
2023/01/20 06:17:44;;;;;;;2.05;1.15;;;11.50;71.50;;;;;;6188809;23;19997;-67
2023/01/20 06:20:10;;;;;;;1.50;1.10;;;11.50;71.50;;;;;;6215333;23;20063;-67
2023/01/20 06:22:36;;;;;;;1.30;1.13;;;11.50;71.50;;;;;;6188558;23;20024;-67
2023/01/20 06:25:02;;;;;;;2.83;1.27;;;11.50;71.50;;;;;;6188911;23;20000;-67
2023/01/20 06:27:27;;;;;;;1.58;1.17;;;11.50;71.40;;;;;;6215252;23;20000;-67
2023/01/20 06:29:53;;;;;;;1.42;1.13;;;11.50;71.50;;;;;;6213337;23;20103;-67
2023/01/20 06:32:19;;;;;;;2.30;1.25;;;11.50;71.50;;;;;;6213617;23;20076;-67
2023/01/20 06:34:44;;;;;;;3.15;1.10;;;11.50;71.40;;;;;;6215077;23;20080;-67
2023/01/20 06:37:10;;;;;;;1.15;1.00;;;11.50;71.50;;;;;;6215090;23;20005;-67
2023/01/20 06:39:36;;;;;;;1.80;1.00;;;11.50;71.50;;;;;;6213630;23;20001;-67
2023/01/20 06:42:02;;;;;;;2.13;1.05;;;11.50;71.50;;;;;;6214895;23;20453;-67
2023/01/20 06:44:27;;;;;;;1.17;1.02;;;11.50;71.40;;;;;;6213260;23;20032;-67
2023/01/20 06:46:53;;;;;;;1.05;0.85;;;11.50;71.40;;;;;;6213628;23;20449;-67
2023/01/20 06:49:19;;;;;;;1.55;1.27;;;11.50;71.40;;;;;;6213670;23;20016;-67
2023/01/20 06:51:46;;;;;;;1.65;1.08;;;11.50;71.40;;;;;;6214917;23;20005;-67
2023/01/20 06:54:12;;;;;;;2.70;1.20;;;11.50;71.40;;;;;;6188806;23;20015;-67
2023/01/20 06:56:37;;;;;;;1.00;0.90;;;11.50;71.40;;;;;;6213573;23;20008;-67
2023/01/20 06:59:03;;;;;;;8.85;1.20;;;11.50;71.40;;;;;;6214643;23;20024;-67
2023/01/20 07:01:29;;;;;;;1.40;0.80;;;11.50;71.40;;;;;;6213460;23;19997;-67
2023/01/20 07:03:55;;;;;;;1.25;1.00;;;11.50;71.40;;;;;;6188674;23;20005;-67
2023/01/20 07:06:24;;;;;;;1.33;0.93;;;11.50;71.40;;;;;;6188334;23;20011;-67
2023/01/20 07:08:50;;;;;;;2.25;1.00;;;11.50;71.40;;;;;;6213249;23;20012;-67
2023/01/20 07:11:15;;;;;;;1.20;0.90;;;11.50;71.40;;;;;;6188129;23;20000;-67
2023/01/20 07:13:41;;;;;;;2.58;1.10;;;11.50;71.40;;;;;;6213045;23;20050;-67
2023/01/20 07:16:08;;;;;;;1.20;1.10;;;11.50;71.40;;;;;;6213193;23;20001;-67
2023/01/20 07:18:33;;;;;;;1.95;1.20;;;11.50;71.40;;;;;;6213258;23;20007;-67
2023/01/20 07:20:59;;;;;;;2.13;1.00;;;11.50;71.40;;;;;;6188084;23;19997;-67
2023/01/20 07:23:26;;;;;;;1.10;1.00;;;11.50;71.50;;;;;;6214372;23;20013;-67
2023/01/20 07:26:25;;;;;;;0.88;0.85;;;11.50;71.40;;;;;;6188400;23;19997;-67
2023/01/20 07:28:51;;;;;;;1.60;1.50;;;11.50;71.30;;;;;;6185157;23;20005;-67
2023/01/20 07:31:27;;;;;;;1.40;1.00;;;11.50;71.50;;;;;;6214298;23;20005;-67
2023/01/20 07:33:56;;;;;;;1.35;1.25;;;11.50;71.40;;;;;;6213114;23;20004;-67
2023/01/20 07:36:21;;;;;;;1.00;0.80;;;11.50;71.40;;;;;;6213160;23;19997;-67
2023/01/20 07:38:50;;;;;;;3.03;1.02;;;11.50;71.40;;;;;;6213324;23;20012;-67
2023/01/20 07:41:18;;;;;;;1.08;0.80;;;11.50;71.40;;;;;;6214570;23;20050;-67
2023/01/20 07:43:44;;;;;;;1.00;0.80;;;11.50;71.40;;;;;;6188248;23;20051;-67
2023/01/20 07:46:10;;;;;;;1.42;0.95;;;11.50;71.40;;;;;;6188146;23;20043;-67
2023/01/20 07:48:36;;;;;;;1.17;0.98;;;11.50;71.40;;;;;;6212975;23;20055;-67
2023/01/20 07:51:06;;;;;;;0.75;0.75;;;11.50;71.40;;;;;;6213117;23;20004;-67
2023/01/20 07:53:38;;;;;;;1.20;1.00;;;11.50;71.50;;;;;;6188950;23;20000;-67
2023/01/20 07:56:18;;;;;;;1.67;1.10;;;11.50;71.40;;;;;;6214484;23;20079;-67
2023/01/20 07:58:44;;;;;;;1.50;1.10;;;11.50;71.40;;;;;;6190296;23;20008;-67
2023/01/20 08:01:24;;;;;;;2.15;1.10;;;11.50;71.40;;;;;;6188212;23;20004;-67
2023/01/20 08:03:49;;;;;;;1.10;0.73;;;11.50;71.40;;;;;;6189085;23;20075;-67
2023/01/20 08:06:17;;;;;;;1.42;0.80;;;11.50;71.40;;;;;;6214821;23;20001;-67
2023/01/20 08:08:42;;;;;;;1.60;0.93;;;11.50;71.40;;;;;;6213117;23;20011;-67
2023/01/20 08:11:09;;;;;;;0.98;0.80;;;11.50;71.40;;;;;;6214193;23;20036;-67
2023/01/20 08:13:35;;;;;;;2.03;0.93;;;11.50;71.40;;;;;;6188355;23;20011;-67
2023/01/20 08:16:01;;;;;;;1.25;1.10;;;11.50;71.40;;;;;;6212853;23;20008;-67
2023/01/20 08:18:27;;;;;;;1.75;1.10;;;11.50;71.40;;;;;;6214514;23;20015;-67
2023/01/20 08:20:53;;;;;;;1.90;1.05;;;11.50;71.40;;;;;;6213251;23;19996;-67
2023/01/20 08:23:18;;;;;;;1.00;0.90;;;11.50;71.30;;;;;;6214043;23;20016;-67
2023/01/20 08:25:44;;;;;;;1.27;1.00;;;11.50;72.40;;;;;;6214278;23;20026;-67
2023/01/20 08:28:10;;;;;;;1.02;0.90;;;11.50;71.30;;;;;;6213121;23;20004;-67
2023/01/20 08:30:35;;;;;;;2.28;1.10;;;11.50;71.30;;;;;;6214449;23;20000;-67
2023/01/20 08:33:01;;;;;;;1.42;1.00;;;11.50;71.40;;;;;;6213162;23;20310;-67
2023/01/20 08:35:27;;;;;;;0.98;0.82;;;11.50;71.30;;;;;;6214716;23;20009;-67
2023/01/20 08:37:52;;;;;;;2.85;1.00;;;11.50;71.30;;;;;;6189750;23;20122;-67
2023/01/20 08:40:18;;;;;;;1.15;0.90;;;11.50;71.30;;;;;;6214606;23;20007;-67
2023/01/20 08:42:44;;;;;;;1.77;1.00;;;11.50;71.30;;;;;;6189806;23;20070;-67
2023/01/20 08:45:10;;;;;;;0.95;0.77;;;11.50;71.30;;;;;;6214632;23;20456;-67
2023/01/20 08:47:37;;;;;;;1.00;0.90;;;11.50;71.30;;;;;;6214726;23;20495;-67
2023/01/20 08:50:04;;;;;;;1.45;1.10;;;11.50;71.30;;;;;;6216495;23;20005;-67
2023/01/20 08:52:30;;;;;;;2.15;0.85;;;11.50;71.30;;;;;;6214597;23;20004;-67
2023/01/20 08:54:57;;;;;;;1.13;1.02;;;11.50;71.30;;;;;;6189156;23;20009;-67
2023/01/20 08:57:25;;;;;;;1.35;0.70;;;11.50;71.30;;;;;;6216000;23;19996;-67
2023/01/20 08:59:51;;;;;;;0.90;0.80;;;11.50;71.30;;;;;;6216058;23;20032;-67
2023/01/20 09:02:16;;;;;;;1.65;0.80;;;11.50;71.30;;;;;;6216106;23;20004;-67
2023/01/20 09:04:42;;;;;;;1.90;1.20;;;11.50;71.30;;;;;;6216027;23;20011;-67
2023/01/20 09:07:10;;;;;;;1.63;1.05;;;11.50;71.40;;;;;;6215971;23;20345;-67
2023/01/20 09:09:35;;;;;;;0.90;0.80;;;11.50;71.30;;;;;;6215686;23;20001;-67
2023/01/20 09:12:03;;;;;;;2.47;0.82;;;11.50;71.30;;;;;;6215711;23;20126;-67
2023/01/20 09:14:28;;;;;;;2.20;0.82;;;11.50;71.30;;;;;;6189431;23;20422;-67
2023/01/20 09:16:54;;;;;;;2.30;0.70;;;11.50;71.30;;;;;;6189240;23;20079;-67
2023/01/20 09:19:20;;;;;;;1.60;0.82;;;11.50;71.30;;;;;;6215809;23;20028;-67
2023/01/20 09:21:45;;;;;;;1.00;0.90;;;11.50;71.30;;;;;;6215808;23;20004;-67
2023/01/20 09:24:11;;;;;;;1.35;0.90;;;11.50;71.30;;;;;;6215359;23;20013;-67
2023/01/20 09:26:39;;;;;;;0.98;0.88;;;11.50;71.30;;;;;;6215717;23;20012;-67
2023/01/20 09:29:09;;;;;;;0.90;0.70;;;11.50;71.40;;;;;;6190002;23;20393;-67
2023/01/20 09:32:00;;;;;;;0.80;0.80;;;11.50;71.30;;;;;;6214416;23;20004;-67
2023/01/20 09:34:28;;;;;;;0.88;0.85;;;11.50;71.30;;;;;;6215299;23;20011;-67
2023/01/20 09:45:25;;;;;;;1.10;0.90;;;11.50;71.30;;;;;;6123480;23;20025;-67
2023/01/20 09:47:51;;;;;;;1.23;0.82;;;11.50;71.30;;;;;;6099256;23;20012;-67
2023/01/20 09:53:22;;;;;;;1.10;0.90;;;11.50;71.30;;;;;;6103962;23;20135;-67
2023/01/20 09:55:51;;;;;;;0.80;0.80;;;11.50;71.40;;;;;;6101565;23;20010;-67
2023/01/20 09:58:33;;;;;;;1.80;0.90;;;11.50;71.30;;;;;;6099182;23;20006;-67
2023/01/20 10:01:32;;;;;;;1.35;0.80;;;11.50;71.40;;;;;;6099367;23;20085;-67
2023/01/20 10:04:05;;;;;;;1.38;1.00;;;11.50;71.30;;;;;;6099196;23;20505;-67
2023/01/20 10:06:38;;;;;;;1.10;0.80;;;11.50;71.40;;;;;;6098802;23;20060;-67
2023/01/20 10:09:17;;;;;;;1.35;0.80;;;11.50;71.40;;;;;;6100350;23;20006;-67
2023/01/20 10:11:43;;;;;;;1.23;0.68;;;11.50;71.30;;;;;;6123491;23;20057;-67
2023/01/20 10:14:17;;;;;;;1.00;0.80;;;11.50;71.30;;;;;;6099199;23;20105;-67
2023/01/20 10:16:49;;;;;;;0.70;0.70;;;11.50;71.40;;;;;;6146283;23;20004;-67
2023/01/20 10:19:26;;;;;;;1.05;0.93;;;11.50;71.40;;;;;;6213873;23;20004;-67
2023/01/20 10:22:12;;;;;;;1.58;1.00;;;11.50;71.30;;;;;;6190007;23;20429;-67
2023/01/20 10:24:51;;;;;;;0.77;0.73;;;11.50;71.30;;;;;;6188594;23;20095;-67
2023/01/20 10:27:17;;;;;;;1.10;0.90;;;11.50;71.40;;;;;;6213705;23;20036;-67
2023/01/20 10:29:48;;;;;;;1.13;0.85;;;11.50;71.40;;;;;;6215191;23;20337;-67
2023/01/20 10:32:35;;;;;;;1.20;0.80;;;11.50;71.40;;;;;;6213872;23;20005;-67
2023/01/20 10:35:06;;;;;;;0.80;0.80;;;11.50;71.30;;;;;;6215068;23;20005;-67
2023/01/20 10:37:32;;;;;;;1.25;0.90;;;11.50;71.30;;;;;;6189113;23;20341;-67
2023/01/20 10:40:06;;;;;;;1.60;1.00;;;11.50;71.40;;;;;;6188640;23;20096;-67
2023/01/20 10:42:31;;;;;;;1.20;0.88;;;11.50;71.30;;;;;;6189979;23;20004;-67
2023/01/20 10:44:57;;;;;;;1.35;0.82;;;11.50;71.40;;;;;;6188735;23;20005;-67
2023/01/20 10:47:30;;;;;;;1.58;1.00;;;11.50;71.40;;;;;;6214900;23;20009;-67
2023/01/20 10:50:20;;;;;;;1.67;1.17;;;11.50;71.50;;;;;;6189735;23;20076;-67
2023/01/20 10:53:11;;;;;;;1.92;1.10;;;11.50;71.30;;;;;;6213555;23;20001;-67
2023/01/20 10:55:52;;;;;;;1.58;0.98;;;11.50;71.30;;;;;;6214613;23;20000;-67
2023/01/20 10:58:24;;;;;;;0.68;0.68;;;11.50;71.50;;;;;;6213511;23;20345;-67
2023/01/20 11:00:50;;;;;;;1.95;0.90;;;11.50;71.40;;;;;;6213566;23;19996;-67
2023/01/20 11:03:18;;;;;;;0.65;0.65;;;11.50;71.40;;;;;;6213516;23;20051;-67
2023/01/20 11:05:43;;;;;;;1.48;1.00;;;11.50;71.50;;;;;;6213061;23;20007;-67
2023/01/20 11:08:21;;;;;;;1.08;0.90;;;11.50;71.50;;;;;;6188568;23;20349;-67
2023/01/20 11:10:48;;;;;;;1.42;0.88;;;11.50;71.40;;;;;;6213330;23;20005;-67
2023/01/20 11:13:13;;;;;;;0.80;0.80;;;11.50;71.40;;;;;;6188691;23;20055;-67
2023/01/20 11:15:44;;;;;;;1.35;0.82;;;11.50;71.40;;;;;;6214401;23;20005;-67
2023/01/20 11:18:13;;;;;;;0.95;0.80;;;11.50;71.40;;;;;;6213445;23;20079;-67
2023/01/20 11:20:49;;;;;;;1.23;0.80;;;11.50;71.50;;;;;;6214425;23;20006;-67
2023/01/20 11:23:18;;;;;;;1.90;1.00;;;11.50;71.50;;;;;;6213243;23;20067;-67
2023/01/20 11:25:55;;;;;;;1.40;1.00;;;11.50;71.40;;;;;;6214445;23;20491;-67
2023/01/20 11:28:21;;;;;;;1.05;0.75;;;11.50;71.40;;;;;;6213169;23;20457;-67
2023/01/20 11:30:51;;;;;;;1.25;0.90;;;11.50;71.40;;;;;;6188308;23;20008;-67
2023/01/20 11:33:19;;;;;;;1.20;0.90;;;11.50;71.40;;;;;;6213262;23;20000;-67
2023/01/20 11:36:00;;;;;;;0.98;0.90;;;11.50;71.40;;;;;;6214334;23;20074;-67
2023/01/20 11:38:31;;;;;;;1.35;0.80;;;11.50;71.40;;;;;;6213117;23;20024;-67
2023/01/20 11:40:57;;;;;;;1.67;0.80;;;11.50;71.50;;;;;;6188607;23;20039;-67
2023/01/20 11:43:34;;;;;;;1.00;0.77;;;11.50;71.40;;;;;;6213379;23;20384;-67
2023/01/20 11:46:21;;;;;;;1.00;0.70;;;11.50;71.40;;;;;;6214577;23;19997;-67
2023/01/20 11:48:47;;;;;;;1.85;0.80;;;11.50;71.40;;;;;;6212864;23;20016;-67
2023/01/20 11:51:21;;;;;;;0.98;0.80;;;11.50;71.40;;;;;;6213162;23;20001;-67
2023/01/20 11:53:47;;;;;;;0.80;0.80;;;11.50;71.40;;;;;;6214437;23;20007;-67
2023/01/20 11:56:23;;;;;;;0.95;0.90;;;11.50;71.40;;;;;;6213287;23;20000;-67
2023/01/20 11:58:55;;;;;;;0.93;0.90;;;11.60;71.50;;;;;;6188409;23;20001;-67
2023/01/20 12:01:28;;;;;;;1.05;0.98;;;11.50;71.40;;;;;;6213083;23;20012;-67
2023/01/20 12:04:10;;;;;;;1.00;0.80;;;11.50;71.50;;;;;;6214148;23;20088;-67
2023/01/20 12:06:43;;;;;;;1.60;1.10;;;11.50;71.40;;;;;;6213099;23;20005;-67
2023/01/20 12:09:15;;;;;;;1.02;0.93;;;11.60;71.50;;;;;;6191158;23;20051;-67
2023/01/20 12:12:00;;;;;;;1.60;1.00;;;11.50;71.50;;;;;;6190795;23;20348;-67
2023/01/20 12:14:44;;;;;;;1.45;0.90;;;11.50;71.50;;;;;;6215091;23;20009;-67
2023/01/20 12:17:13;;;;;;;1.13;0.85;;;11.60;71.50;;;;;;6214758;23;20433;-67
2023/01/20 12:20:16;;;;;;;1.23;0.95;;;11.60;71.50;;;;;;6215009;23;20029;-67
2023/01/20 12:22:59;;;;;;;1.00;0.90;;;11.60;71.50;;;;;;6138931;23;20005;-67
2023/01/20 12:25:31;;;;;;;1.48;1.13;;;11.60;71.50;;;;;;6216236;23;20433;-67
2023/01/20 12:28:32;;;;;;;1.00;0.90;;;11.60;71.50;;;;;;6214802;23;20012;-67
2023/01/20 12:31:01;;;;;;;0.88;0.80;;;11.60;72.50;;;;;;6193734;23;20075;-67
2023/01/20 12:33:31;;;;;;;1.20;0.90;;;11.60;71.50;;;;;;6189844;23;20084;-67
2023/01/20 12:36:25;;;;;;;0.80;0.80;;;11.60;71.50;;;;;;6214741;23;20004;-67
2023/01/20 12:39:21;;;;;;;0.80;0.80;;;11.60;71.50;;;;;;6216238;23;20004;-67
2023/01/20 12:42:08;;;;;;;2.47;1.00;;;11.60;71.50;;;;;;6216598;23;20007;-67
2023/01/20 12:44:40;;;;;;;1.58;1.00;;;11.60;71.50;;;;;;6216112;23;20011;-67
2023/01/20 12:47:29;;;;;;;2.38;1.05;;;11.60;71.50;;;;;;6215903;23;20004;-67
2023/01/20 12:50:14;;;;;;;0.90;0.90;;;11.60;71.50;;;;;;6215976;23;20005;-67
2023/01/20 12:53:11;;;;;;;1.52;0.88;;;11.60;71.50;;;;;;6214444;23;20004;-67
2023/01/20 12:55:44;;;;;;;1.20;0.80;;;11.60;71.50;;;;;;6214627;23;20001;-67
2023/01/20 12:58:28;;;;;;;1.30;0.77;;;11.60;71.50;;;;;;6214783;23;20433;-67
2023/01/20 13:01:27;;;;;;;1.08;0.70;;;11.60;71.50;;;;;;6215673;23;20448;-67
2023/01/20 13:04:01;;;;;;;2.17;0.98;;;11.60;71.50;;;;;;6214594;23;20068;-67
2023/01/20 13:06:45;;;;;;;0.98;0.90;;;11.60;71.50;;;;;;6214549;23;20051;-67
2023/01/20 13:09:21;;;;;;;2.95;1.17;;;11.60;71.50;;;;;;6215798;23;20075;-67
2023/01/20 13:12:24;;;;;;;1.95;1.05;;;11.60;71.50;;;;;;6214500;23;20004;-67
2023/01/20 13:15:01;;;;;;;0.80;0.80;;;11.60;71.50;;;;;;6070633;23;20015;-67